sensor_id;sensor_type;location;lat;lon;timestamp;P1;durP1;ratioP1;P2;durP2;ratioP2
5499;SDS011;2772;42.700;23.304;2022-12-18T00:02:01;10.87;;;8.33;;
5499;SDS011;2772;42.700;23.304;2022-12-18T00:04:28;7.47;;;6.17;;
5499;SDS011;2772;42.700;23.304;2022-12-18T00:06:55;11.83;;;8.40;;
5499;SDS011;2772;42.700;23.304;2022-12-18T00:09:22;10.30;;;6.97;;
5499;SDS011;2772;42.700;23.304;2022-12-18T00:11:50;8.70;;;6.73;;
5499;SDS011;2772;42.700;23.304;2022-12-18T00:14:17;9.23;;;6.23;;
5499;SDS011;2772;42.700;23.304;2022-12-18T00:16:46;7.80;;;6.43;;
5499;SDS011;2772;42.700;23.304;2022-12-18T00:19:13;8.37;;;7.00;;
5499;SDS011;2772;42.700;23.304;2022-12-18T00:21:41;14.90;;;9.33;;
5499;SDS011;2772;42.700;23.304;2022-12-18T00:24:09;6.70;;;5.93;;
5499;SDS011;2772;42.700;23.304;2022-12-18T00:26:37;7.53;;;6.10;;
5499;SDS011;2772;42.700;23.304;2022-12-18T00:29:07;13.83;;;7.63;;
5499;SDS011;2772;42.700;23.304;2022-12-18T00:31:38;16.17;;;10.33;;
5499;SDS011;2772;42.700;23.304;2022-12-18T00:34:06;10.93;;;7.87;;
5499;SDS011;2772;42.700;23.304;2022-12-18T00:36:35;11.77;;;7.60;;
5499;SDS011;2772;42.700;23.304;2022-12-18T00:39:02;10.37;;;7.70;;
5499;SDS011;2772;42.700;23.304;2022-12-18T00:41:30;10.80;;;6.90;;
5499;SDS011;2772;42.700;23.304;2022-12-18T00:44:17;10.57;;;6.87;;
5499;SDS011;2772;42.700;23.304;2022-12-18T00:46:45;12.13;;;7.47;;
5499;SDS011;2772;42.700;23.304;2022-12-18T00:49:13;10.13;;;8.13;;
5499;SDS011;2772;42.700;23.304;2022-12-18T00:51:40;10.40;;;7.20;;
5499;SDS011;2772;42.700;23.304;2022-12-18T00:54:07;20.70;;;10.87;;
5499;SDS011;2772;42.700;23.304;2022-12-18T00:56:36;12.53;;;7.90;;
5499;SDS011;2772;42.700;23.304;2022-12-18T00:59:03;10.80;;;6.90;;
5499;SDS011;2772;42.700;23.304;2022-12-18T01:01:32;9.67;;;7.33;;
5499;SDS011;2772;42.700;23.304;2022-12-18T01:03:59;13.90;;;7.40;;
5499;SDS011;2772;42.700;23.304;2022-12-18T01:06:26;10.57;;;6.70;;
5499;SDS011;2772;42.700;23.304;2022-12-18T01:08:53;10.93;;;7.70;;
5499;SDS011;2772;42.700;23.304;2022-12-18T01:11:20;11.80;;;7.17;;
5499;SDS011;2772;42.700;23.304;2022-12-18T01:13:47;12.60;;;8.03;;
5499;SDS011;2772;42.700;23.304;2022-12-18T01:16:15;9.00;;;7.13;;
5499;SDS011;2772;42.700;23.304;2022-12-18T01:18:44;11.00;;;7.40;;
5499;SDS011;2772;42.700;23.304;2022-12-18T01:21:11;10.27;;;8.00;;
5499;SDS011;2772;42.700;23.304;2022-12-18T01:23:39;9.83;;;7.83;;
5499;SDS011;2772;42.700;23.304;2022-12-18T01:26:07;10.70;;;8.27;;
5499;SDS011;2772;42.700;23.304;2022-12-18T01:28:34;13.10;;;8.40;;
5499;SDS011;2772;42.700;23.304;2022-12-18T01:31:15;12.83;;;7.57;;
5499;SDS011;2772;42.700;23.304;2022-12-18T01:33:45;11.83;;;8.50;;
5499;SDS011;2772;42.700;23.304;2022-12-18T01:36:16;13.57;;;8.47;;
5499;SDS011;2772;42.700;23.304;2022-12-18T01:38:44;12.50;;;8.30;;
5499;SDS011;2772;42.700;23.304;2022-12-18T01:41:12;12.07;;;8.83;;
5499;SDS011;2772;42.700;23.304;2022-12-18T01:43:43;11.80;;;8.03;;
5499;SDS011;2772;42.700;23.304;2022-12-18T01:46:11;11.43;;;7.40;;
5499;SDS011;2772;42.700;23.304;2022-12-18T01:48:38;11.23;;;7.70;;
5499;SDS011;2772;42.700;23.304;2022-12-18T01:51:09;16.30;;;7.20;;
5499;SDS011;2772;42.700;23.304;2022-12-18T01:53:37;8.67;;;6.70;;
5499;SDS011;2772;42.700;23.304;2022-12-18T01:56:06;12.20;;;8.47;;
5499;SDS011;2772;42.700;23.304;2022-12-18T01:58:36;10.40;;;7.53;;
5499;SDS011;2772;42.700;23.304;2022-12-18T02:01:09;10.97;;;7.80;;
5499;SDS011;2772;42.700;23.304;2022-12-18T02:03:36;9.00;;;6.90;;
5499;SDS011;2772;42.700;23.304;2022-12-18T02:06:06;11.63;;;7.20;;
5499;SDS011;2772;42.700;23.304;2022-12-18T02:08:40;10.80;;;7.10;;
5499;SDS011;2772;42.700;23.304;2022-12-18T02:11:15;8.00;;;7.20;;
5499;SDS011;2772;42.700;23.304;2022-12-18T02:13:50;11.67;;;6.90;;
5499;SDS011;2772;42.700;23.304;2022-12-18T02:16:23;10.70;;;7.40;;
5499;SDS011;2772;42.700;23.304;2022-12-18T02:18:56;9.70;;;7.20;;
5499;SDS011;2772;42.700;23.304;2022-12-18T02:21:31;8.70;;;6.93;;
5499;SDS011;2772;42.700;23.304;2022-12-18T02:24:14;6.60;;;5.90;;
5499;SDS011;2772;42.700;23.304;2022-12-18T02:26:52;7.73;;;5.27;;
5499;SDS011;2772;42.700;23.304;2022-12-18T02:29:22;14.40;;;7.17;;
5499;SDS011;2772;42.700;23.304;2022-12-18T02:31:52;8.80;;;6.60;;
5499;SDS011;2772;42.700;23.304;2022-12-18T02:34:27;11.70;;;6.50;;
5499;SDS011;2772;42.700;23.304;2022-12-18T02:36:56;10.40;;;6.70;;
5499;SDS011;2772;42.700;23.304;2022-12-18T02:39:25;9.97;;;7.90;;
5499;SDS011;2772;42.700;23.304;2022-12-18T02:41:56;11.80;;;7.13;;
5499;SDS011;2772;42.700;23.304;2022-12-18T02:44:24;8.50;;;5.90;;
5499;SDS011;2772;42.700;23.304;2022-12-18T02:46:52;7.13;;;6.20;;
5499;SDS011;2772;42.700;23.304;2022-12-18T02:49:22;8.37;;;6.73;;
5499;SDS011;2772;42.700;23.304;2022-12-18T02:52:01;10.07;;;7.60;;
5499;SDS011;2772;42.700;23.304;2022-12-18T02:54:37;10.27;;;6.63;;
5499;SDS011;2772;42.700;23.304;2022-12-18T02:57:16;9.37;;;6.63;;
5499;SDS011;2772;42.700;23.304;2022-12-18T02:59:49;9.83;;;7.57;;
5499;SDS011;2772;42.700;23.304;2022-12-18T03:02:25;12.93;;;7.30;;
5499;SDS011;2772;42.700;23.304;2022-12-18T03:04:58;9.30;;;7.37;;
5499;SDS011;2772;42.700;23.304;2022-12-18T03:07:33;7.77;;;6.23;;
5499;SDS011;2772;42.700;23.304;2022-12-18T03:10:04;12.13;;;7.50;;
5499;SDS011;2772;42.700;23.304;2022-12-18T03:12:36;6.27;;;5.60;;
5499;SDS011;2772;42.700;23.304;2022-12-18T03:15:07;9.33;;;6.13;;
5499;SDS011;2772;42.700;23.304;2022-12-18T03:17:38;11.23;;;8.27;;
5499;SDS011;2772;42.700;23.304;2022-12-18T03:20:10;12.07;;;7.47;;
5499;SDS011;2772;42.700;23.304;2022-12-18T03:22:40;11.00;;;7.70;;
5499;SDS011;2772;42.700;23.304;2022-12-18T03:25:11;9.17;;;6.90;;
5499;SDS011;2772;42.700;23.304;2022-12-18T03:27:42;10.33;;;7.63;;
5499;SDS011;2772;42.700;23.304;2022-12-18T03:30:12;11.50;;;7.00;;
5499;SDS011;2772;42.700;23.304;2022-12-18T03:32:42;14.67;;;7.60;;
5499;SDS011;2772;42.700;23.304;2022-12-18T03:35:14;14.73;;;8.10;;
5499;SDS011;2772;42.700;23.304;2022-12-18T03:37:46;12.47;;;7.73;;
5499;SDS011;2772;42.700;23.304;2022-12-18T03:40:13;11.80;;;7.47;;
5499;SDS011;2772;42.700;23.304;2022-12-18T03:42:43;8.07;;;6.10;;
5499;SDS011;2772;42.700;23.304;2022-12-18T03:45:18;11.50;;;7.23;;
5499;SDS011;2772;42.700;23.304;2022-12-18T03:47:53;7.67;;;5.90;;
5499;SDS011;2772;42.700;23.304;2022-12-18T03:50:27;9.10;;;7.17;;
5499;SDS011;2772;42.700;23.304;2022-12-18T03:53:11;10.83;;;7.50;;
5499;SDS011;2772;42.700;23.304;2022-12-18T03:55:44;10.67;;;7.00;;
5499;SDS011;2772;42.700;23.304;2022-12-18T03:58:15;11.47;;;7.30;;
5499;SDS011;2772;42.700;23.304;2022-12-18T04:00:45;10.77;;;7.37;;
5499;SDS011;2772;42.700;23.304;2022-12-18T04:03:14;8.47;;;7.00;;
5499;SDS011;2772;42.700;23.304;2022-12-18T04:05:43;11.13;;;7.50;;
5499;SDS011;2772;42.700;23.304;2022-12-18T04:08:10;12.97;;;7.20;;
5499;SDS011;2772;42.700;23.304;2022-12-18T04:10:37;10.40;;;7.40;;
5499;SDS011;2772;42.700;23.304;2022-12-18T04:13:04;14.67;;;8.20;;
5499;SDS011;2772;42.700;23.304;2022-12-18T04:15:36;11.57;;;7.50;;
5499;SDS011;2772;42.700;23.304;2022-12-18T04:18:04;13.83;;;8.87;;
5499;SDS011;2772;42.700;23.304;2022-12-18T04:20:30;13.27;;;8.60;;
5499;SDS011;2772;42.700;23.304;2022-12-18T04:22:57;10.13;;;6.80;;
5499;SDS011;2772;42.700;23.304;2022-12-18T04:25:24;10.63;;;7.60;;
5499;SDS011;2772;42.700;23.304;2022-12-18T04:27:51;11.50;;;8.27;;
5499;SDS011;2772;42.700;23.304;2022-12-18T04:30:19;13.03;;;8.37;;
5499;SDS011;2772;42.700;23.304;2022-12-18T04:32:47;12.20;;;8.13;;
5499;SDS011;2772;42.700;23.304;2022-12-18T04:35:13;16.30;;;8.90;;
5499;SDS011;2772;42.700;23.304;2022-12-18T04:37:40;11.97;;;7.70;;
5499;SDS011;2772;42.700;23.304;2022-12-18T04:40:07;16.37;;;9.17;;
5499;SDS011;2772;42.700;23.304;2022-12-18T04:42:34;14.40;;;9.30;;
5499;SDS011;2772;42.700;23.304;2022-12-18T04:45:01;13.77;;;8.70;;
5499;SDS011;2772;42.700;23.304;2022-12-18T04:47:28;15.10;;;9.80;;
5499;SDS011;2772;42.700;23.304;2022-12-18T04:49:56;15.83;;;9.80;;
5499;SDS011;2772;42.700;23.304;2022-12-18T04:52:23;14.60;;;9.70;;
5499;SDS011;2772;42.700;23.304;2022-12-18T04:54:50;15.67;;;9.63;;
5499;SDS011;2772;42.700;23.304;2022-12-18T04:57:16;17.53;;;9.90;;
5499;SDS011;2772;42.700;23.304;2022-12-18T04:59:44;19.50;;;10.40;;
5499;SDS011;2772;42.700;23.304;2022-12-18T05:02:10;15.50;;;9.70;;
5499;SDS011;2772;42.700;23.304;2022-12-18T05:04:37;16.23;;;9.60;;
5499;SDS011;2772;42.700;23.304;2022-12-18T05:07:06;17.60;;;9.70;;
5499;SDS011;2772;42.700;23.304;2022-12-18T05:09:33;16.70;;;9.90;;
5499;SDS011;2772;42.700;23.304;2022-12-18T05:11:59;18.07;;;10.63;;
5499;SDS011;2772;42.700;23.304;2022-12-18T05:14:26;21.97;;;10.63;;
5499;SDS011;2772;42.700;23.304;2022-12-18T05:16:54;17.73;;;10.30;;
5499;SDS011;2772;42.700;23.304;2022-12-18T05:19:21;16.37;;;10.57;;
5499;SDS011;2772;42.700;23.304;2022-12-18T05:21:47;22.23;;;11.77;;
5499;SDS011;2772;42.700;23.304;2022-12-18T05:24:15;18.57;;;10.23;;
5499;SDS011;2772;42.700;23.304;2022-12-18T05:26:42;18.17;;;10.67;;
5499;SDS011;2772;42.700;23.304;2022-12-18T05:29:09;17.30;;;10.73;;
5499;SDS011;2772;42.700;23.304;2022-12-18T05:31:37;21.10;;;10.60;;
5499;SDS011;2772;42.700;23.304;2022-12-18T05:34:04;14.67;;;9.80;;
5499;SDS011;2772;42.700;23.304;2022-12-18T05:36:30;19.43;;;10.90;;
5499;SDS011;2772;42.700;23.304;2022-12-18T05:38:57;16.27;;;10.13;;
5499;SDS011;2772;42.700;23.304;2022-12-18T05:41:26;15.80;;;10.20;;
5499;SDS011;2772;42.700;23.304;2022-12-18T05:43:53;16.50;;;10.30;;
5499;SDS011;2772;42.700;23.304;2022-12-18T05:46:20;18.63;;;10.20;;
5499;SDS011;2772;42.700;23.304;2022-12-18T05:48:47;12.63;;;9.00;;
5499;SDS011;2772;42.700;23.304;2022-12-18T05:51:16;18.60;;;10.93;;
5499;SDS011;2772;42.700;23.304;2022-12-18T05:53:44;15.77;;;9.87;;
5499;SDS011;2772;42.700;23.304;2022-12-18T05:56:13;17.30;;;10.03;;
5499;SDS011;2772;42.700;23.304;2022-12-18T05:58:42;20.57;;;11.87;;
5499;SDS011;2772;42.700;23.304;2022-12-18T06:01:10;16.80;;;9.77;;
5499;SDS011;2772;42.700;23.304;2022-12-18T06:03:38;21.73;;;11.10;;
5499;SDS011;2772;42.700;23.304;2022-12-18T06:06:12;15.47;;;9.83;;
5499;SDS011;2772;42.700;23.304;2022-12-18T06:08:39;20.80;;;10.87;;
5499;SDS011;2772;42.700;23.304;2022-12-18T06:11:06;18.20;;;9.87;;
5499;SDS011;2772;42.700;23.304;2022-12-18T06:13:33;19.90;;;11.43;;
5499;SDS011;2772;42.700;23.304;2022-12-18T06:16:02;18.03;;;9.77;;
5499;SDS011;2772;42.700;23.304;2022-12-18T06:18:30;18.27;;;9.93;;
5499;SDS011;2772;42.700;23.304;2022-12-18T06:20:57;16.83;;;10.67;;
5499;SDS011;2772;42.700;23.304;2022-12-18T06:23:25;20.40;;;10.93;;
5499;SDS011;2772;42.700;23.304;2022-12-18T06:25:52;20.17;;;11.10;;
5499;SDS011;2772;42.700;23.304;2022-12-18T06:28:19;18.33;;;11.20;;
5499;SDS011;2772;42.700;23.304;2022-12-18T06:30:46;17.63;;;11.37;;
5499;SDS011;2772;42.700;23.304;2022-12-18T06:33:15;20.70;;;11.17;;
5499;SDS011;2772;42.700;23.304;2022-12-18T06:35:42;18.40;;;10.70;;
5499;SDS011;2772;42.700;23.304;2022-12-18T06:38:09;18.27;;;11.17;;
5499;SDS011;2772;42.700;23.304;2022-12-18T06:40:36;17.27;;;10.13;;
5499;SDS011;2772;42.700;23.304;2022-12-18T06:43:03;15.13;;;10.20;;
5499;SDS011;2772;42.700;23.304;2022-12-18T06:45:30;20.57;;;11.50;;
5499;SDS011;2772;42.700;23.304;2022-12-18T06:47:59;19.07;;;10.77;;
5499;SDS011;2772;42.700;23.304;2022-12-18T06:50:27;14.83;;;10.23;;
5499;SDS011;2772;42.700;23.304;2022-12-18T06:52:54;20.63;;;11.20;;
5499;SDS011;2772;42.700;23.304;2022-12-18T06:55:20;18.70;;;9.80;;
5499;SDS011;2772;42.700;23.304;2022-12-18T06:57:47;20.07;;;11.13;;
5499;SDS011;2772;42.700;23.304;2022-12-18T07:00:14;15.37;;;9.30;;
5499;SDS011;2772;42.700;23.304;2022-12-18T07:02:41;16.63;;;9.87;;
5499;SDS011;2772;42.700;23.304;2022-12-18T07:05:08;13.60;;;8.60;;
5499;SDS011;2772;42.700;23.304;2022-12-18T07:07:36;15.17;;;8.97;;
5499;SDS011;2772;42.700;23.304;2022-12-18T07:10:03;24.30;;;10.83;;
5499;SDS011;2772;42.700;23.304;2022-12-18T07:12:30;15.73;;;8.63;;
5499;SDS011;2772;42.700;23.304;2022-12-18T07:14:57;19.60;;;12.07;;
5499;SDS011;2772;42.700;23.304;2022-12-18T07:17:24;18.23;;;11.23;;
5499;SDS011;2772;42.700;23.304;2022-12-18T07:19:51;18.77;;;10.33;;
5499;SDS011;2772;42.700;23.304;2022-12-18T07:22:17;20.43;;;11.13;;
5499;SDS011;2772;42.700;23.304;2022-12-18T07:24:45;22.23;;;13.73;;
5499;SDS011;2772;42.700;23.304;2022-12-18T07:27:12;24.43;;;13.37;;
5499;SDS011;2772;42.700;23.304;2022-12-18T07:29:39;22.50;;;12.40;;
5499;SDS011;2772;42.700;23.304;2022-12-18T07:32:05;24.30;;;12.93;;
5499;SDS011;2772;42.700;23.304;2022-12-18T07:34:33;18.67;;;12.40;;
5499;SDS011;2772;42.700;23.304;2022-12-18T07:37:00;26.97;;;13.17;;
5499;SDS011;2772;42.700;23.304;2022-12-18T07:39:26;24.00;;;12.73;;
5499;SDS011;2772;42.700;23.304;2022-12-18T07:41:54;23.77;;;13.77;;
5499;SDS011;2772;42.700;23.304;2022-12-18T07:44:39;25.83;;;13.97;;
5499;SDS011;2772;42.700;23.304;2022-12-18T07:47:08;24.27;;;14.37;;
5499;SDS011;2772;42.700;23.304;2022-12-18T07:49:35;30.03;;;14.07;;
5499;SDS011;2772;42.700;23.304;2022-12-18T07:52:01;27.30;;;15.00;;
5499;SDS011;2772;42.700;23.304;2022-12-18T07:54:28;24.87;;;13.30;;
5499;SDS011;2772;42.700;23.304;2022-12-18T07:56:56;25.07;;;14.67;;
5499;SDS011;2772;42.700;23.304;2022-12-18T07:59:23;28.93;;;15.30;;
5499;SDS011;2772;42.700;23.304;2022-12-18T08:01:50;25.50;;;13.23;;
5499;SDS011;2772;42.700;23.304;2022-12-18T08:04:16;24.03;;;13.67;;
5499;SDS011;2772;42.700;23.304;2022-12-18T08:06:43;23.73;;;13.37;;
5499;SDS011;2772;42.700;23.304;2022-12-18T08:09:10;25.40;;;14.50;;
5499;SDS011;2772;42.700;23.304;2022-12-18T08:11:37;27.57;;;13.00;;
5499;SDS011;2772;42.700;23.304;2022-12-18T08:14:05;28.67;;;14.43;;
5499;SDS011;2772;42.700;23.304;2022-12-18T08:16:31;25.30;;;13.83;;
5499;SDS011;2772;42.700;23.304;2022-12-18T08:18:58;29.13;;;12.87;;
5499;SDS011;2772;42.700;23.304;2022-12-18T08:21:26;27.50;;;14.63;;
5499;SDS011;2772;42.700;23.304;2022-12-18T08:23:56;22.63;;;12.20;;
5499;SDS011;2772;42.700;23.304;2022-12-18T08:26:27;28.80;;;15.00;;
5499;SDS011;2772;42.700;23.304;2022-12-18T08:28:57;29.50;;;14.13;;
5499;SDS011;2772;42.700;23.304;2022-12-18T08:31:27;28.17;;;12.50;;
5499;SDS011;2772;42.700;23.304;2022-12-18T08:33:54;26.97;;;12.70;;
5499;SDS011;2772;42.700;23.304;2022-12-18T08:36:22;31.47;;;16.47;;
5499;SDS011;2772;42.700;23.304;2022-12-18T08:38:49;43.00;;;20.70;;
5499;SDS011;2772;42.700;23.304;2022-12-18T08:41:16;29.37;;;14.83;;
5499;SDS011;2772;42.700;23.304;2022-12-18T08:43:44;25.00;;;13.30;;
5499;SDS011;2772;42.700;23.304;2022-12-18T08:46:32;24.50;;;13.90;;
5499;SDS011;2772;42.700;23.304;2022-12-18T08:49:01;37.03;;;19.07;;
5499;SDS011;2772;42.700;23.304;2022-12-18T08:51:29;33.30;;;13.87;;
5499;SDS011;2772;42.700;23.304;2022-12-18T08:53:56;22.77;;;12.40;;
5499;SDS011;2772;42.700;23.304;2022-12-18T08:56:23;23.90;;;11.97;;
5499;SDS011;2772;42.700;23.304;2022-12-18T08:58:51;23.93;;;13.20;;
5499;SDS011;2772;42.700;23.304;2022-12-18T09:01:18;18.90;;;11.60;;
5499;SDS011;2772;42.700;23.304;2022-12-18T09:03:47;21.07;;;11.67;;
5499;SDS011;2772;42.700;23.304;2022-12-18T09:06:17;20.70;;;10.90;;
5499;SDS011;2772;42.700;23.304;2022-12-18T09:08:47;20.77;;;12.00;;
5499;SDS011;2772;42.700;23.304;2022-12-18T09:11:18;19.93;;;10.97;;
5499;SDS011;2772;42.700;23.304;2022-12-18T09:13:47;30.90;;;11.93;;
5499;SDS011;2772;42.700;23.304;2022-12-18T09:16:13;21.10;;;11.97;;
5499;SDS011;2772;42.700;23.304;2022-12-18T09:18:40;18.90;;;10.63;;
5499;SDS011;2772;42.700;23.304;2022-12-18T09:21:14;18.50;;;10.77;;
5499;SDS011;2772;42.700;23.304;2022-12-18T09:23:42;14.37;;;9.10;;
5499;SDS011;2772;42.700;23.304;2022-12-18T09:26:15;23.10;;;12.27;;
5499;SDS011;2772;42.700;23.304;2022-12-18T09:28:42;21.07;;;12.20;;
5499;SDS011;2772;42.700;23.304;2022-12-18T09:31:10;24.10;;;12.23;;
5499;SDS011;2772;42.700;23.304;2022-12-18T09:33:38;23.47;;;12.20;;
5499;SDS011;2772;42.700;23.304;2022-12-18T09:36:06;21.60;;;11.90;;
5499;SDS011;2772;42.700;23.304;2022-12-18T09:38:35;21.57;;;11.53;;
5499;SDS011;2772;42.700;23.304;2022-12-18T09:41:03;24.30;;;12.67;;
5499;SDS011;2772;42.700;23.304;2022-12-18T09:43:34;20.93;;;11.17;;
5499;SDS011;2772;42.700;23.304;2022-12-18T09:46:07;21.43;;;11.83;;
5499;SDS011;2772;42.700;23.304;2022-12-18T09:48:41;23.43;;;11.70;;
5499;SDS011;2772;42.700;23.304;2022-12-18T09:51:12;24.30;;;10.93;;
5499;SDS011;2772;42.700;23.304;2022-12-18T09:53:46;19.00;;;11.03;;
5499;SDS011;2772;42.700;23.304;2022-12-18T09:56:19;34.77;;;18.30;;
5499;SDS011;2772;42.700;23.304;2022-12-18T09:58:50;20.40;;;9.70;;
5499;SDS011;2772;42.700;23.304;2022-12-18T10:01:23;24.80;;;12.90;;
5499;SDS011;2772;42.700;23.304;2022-12-18T10:03:53;20.07;;;11.63;;
5499;SDS011;2772;42.700;23.304;2022-12-18T10:06:22;27.13;;;14.20;;
5499;SDS011;2772;42.700;23.304;2022-12-18T10:08:58;24.80;;;13.50;;
5499;SDS011;2772;42.700;23.304;2022-12-18T10:11:36;22.00;;;11.43;;
5499;SDS011;2772;42.700;23.304;2022-12-18T10:14:12;18.10;;;10.77;;
5499;SDS011;2772;42.700;23.304;2022-12-18T10:16:47;21.37;;;11.67;;
5499;SDS011;2772;42.700;23.304;2022-12-18T10:22:19;22.77;;;14.10;;
5499;SDS011;2772;42.700;23.304;2022-12-18T10:24:58;25.97;;;13.30;;
5499;SDS011;2772;42.700;23.304;2022-12-18T10:27:29;20.37;;;11.87;;
5499;SDS011;2772;42.700;23.304;2022-12-18T10:29:59;20.93;;;11.40;;
5499;SDS011;2772;42.700;23.304;2022-12-18T10:32:28;20.73;;;10.47;;
5499;SDS011;2772;42.700;23.304;2022-12-18T10:34:57;20.87;;;11.60;;
5499;SDS011;2772;42.700;23.304;2022-12-18T10:37:24;19.30;;;11.30;;
5499;SDS011;2772;42.700;23.304;2022-12-18T10:40:06;22.73;;;12.17;;
5499;SDS011;2772;42.700;23.304;2022-12-18T10:42:36;32.67;;;16.23;;
5499;SDS011;2772;42.700;23.304;2022-12-18T10:45:05;24.97;;;12.63;;
5499;SDS011;2772;42.700;23.304;2022-12-18T10:47:36;20.93;;;11.33;;
5499;SDS011;2772;42.700;23.304;2022-12-18T10:50:19;18.07;;;10.87;;
5499;SDS011;2772;42.700;23.304;2022-12-18T10:52:54;25.33;;;12.80;;
5499;SDS011;2772;42.700;23.304;2022-12-18T10:55:24;32.93;;;12.87;;
5499;SDS011;2772;42.700;23.304;2022-12-18T10:57:59;19.83;;;11.90;;
5499;SDS011;2772;42.700;23.304;2022-12-18T11:00:42;22.00;;;12.33;;
5499;SDS011;2772;42.700;23.304;2022-12-18T11:03:17;22.93;;;11.37;;
5499;SDS011;2772;42.700;23.304;2022-12-18T11:06:03;22.87;;;12.40;;
5499;SDS011;2772;42.700;23.304;2022-12-18T11:08:32;19.87;;;10.60;;
5499;SDS011;2772;42.700;23.304;2022-12-18T11:11:00;21.00;;;10.93;;
5499;SDS011;2772;42.700;23.304;2022-12-18T11:13:28;22.83;;;12.20;;
5499;SDS011;2772;42.700;23.304;2022-12-18T11:15:56;29.93;;;11.73;;
5499;SDS011;2772;42.700;23.304;2022-12-18T11:18:25;28.93;;;12.70;;
5499;SDS011;2772;42.700;23.304;2022-12-18T11:20:56;25.17;;;12.57;;
5499;SDS011;2772;42.700;23.304;2022-12-18T11:23:25;21.33;;;11.93;;
5499;SDS011;2772;42.700;23.304;2022-12-18T11:25:54;28.43;;;12.20;;
5499;SDS011;2772;42.700;23.304;2022-12-18T11:28:28;21.47;;;11.27;;
5499;SDS011;2772;42.700;23.304;2022-12-18T11:31:15;23.13;;;11.40;;
5499;SDS011;2772;42.700;23.304;2022-12-18T11:33:46;21.50;;;11.70;;
5499;SDS011;2772;42.700;23.304;2022-12-18T11:36:17;22.00;;;11.23;;
5499;SDS011;2772;42.700;23.304;2022-12-18T11:38:46;17.70;;;10.90;;
5499;SDS011;2772;42.700;23.304;2022-12-18T11:41:19;19.10;;;11.67;;
5499;SDS011;2772;42.700;23.304;2022-12-18T11:44:14;23.77;;;11.10;;
5499;SDS011;2772;42.700;23.304;2022-12-18T11:46:47;19.77;;;11.23;;
5499;SDS011;2772;42.700;23.304;2022-12-18T11:49:19;19.43;;;10.20;;
5499;SDS011;2772;42.700;23.304;2022-12-18T11:51:52;19.03;;;11.03;;
5499;SDS011;2772;42.700;23.304;2022-12-18T11:54:24;23.80;;;12.10;;
5499;SDS011;2772;42.700;23.304;2022-12-18T11:56:53;19.20;;;10.50;;
5499;SDS011;2772;42.700;23.304;2022-12-18T11:59:30;25.23;;;13.23;;
5499;SDS011;2772;42.700;23.304;2022-12-18T12:02:11;25.33;;;13.50;;
5499;SDS011;2772;42.700;23.304;2022-12-18T12:04:57;26.47;;;14.70;;
5499;SDS011;2772;42.700;23.304;2022-12-18T12:07:38;25.27;;;14.23;;
5499;SDS011;2772;42.700;23.304;2022-12-18T12:10:18;27.77;;;14.20;;
5499;SDS011;2772;42.700;23.304;2022-12-18T12:13:01;25.57;;;13.80;;
5499;SDS011;2772;42.700;23.304;2022-12-18T12:15:42;25.90;;;13.80;;
5499;SDS011;2772;42.700;23.304;2022-12-18T12:18:19;26.00;;;14.10;;
5499;SDS011;2772;42.700;23.304;2022-12-18T12:20:57;21.30;;;11.30;;
5499;SDS011;2772;42.700;23.304;2022-12-18T12:23:34;15.90;;;9.47;;
5499;SDS011;2772;42.700;23.304;2022-12-18T12:26:09;20.33;;;12.23;;
5499;SDS011;2772;42.700;23.304;2022-12-18T12:28:52;23.00;;;11.87;;
5499;SDS011;2772;42.700;23.304;2022-12-18T12:31:33;21.90;;;12.07;;
5499;SDS011;2772;42.700;23.304;2022-12-18T12:34:15;27.80;;;12.30;;
5499;SDS011;2772;42.700;23.304;2022-12-18T12:36:49;19.97;;;11.27;;
5499;SDS011;2772;42.700;23.304;2022-12-18T12:39:27;22.17;;;12.97;;
5499;SDS011;2772;42.700;23.304;2022-12-18T12:42:00;31.73;;;14.13;;
5499;SDS011;2772;42.700;23.304;2022-12-18T12:44:47;25.40;;;13.70;;
5499;SDS011;2772;42.700;23.304;2022-12-18T12:47:23;26.60;;;12.83;;
5499;SDS011;2772;42.700;23.304;2022-12-18T12:49:54;22.53;;;11.67;;
5499;SDS011;2772;42.700;23.304;2022-12-18T12:52:26;22.30;;;12.00;;
5499;SDS011;2772;42.700;23.304;2022-12-18T12:54:59;27.40;;;10.77;;
5499;SDS011;2772;42.700;23.304;2022-12-18T12:57:30;21.43;;;12.40;;
5499;SDS011;2772;42.700;23.304;2022-12-18T13:00:05;22.83;;;11.90;;
5499;SDS011;2772;42.700;23.304;2022-12-18T13:02:39;16.60;;;10.00;;
5499;SDS011;2772;42.700;23.304;2022-12-18T13:05:15;17.03;;;11.03;;
5499;SDS011;2772;42.700;23.304;2022-12-18T13:07:50;19.97;;;11.17;;
5499;SDS011;2772;42.700;23.304;2022-12-18T13:10:24;22.00;;;10.30;;
5499;SDS011;2772;42.700;23.304;2022-12-18T13:12:57;20.83;;;12.13;;
5499;SDS011;2772;42.700;23.304;2022-12-18T13:15:26;19.33;;;11.60;;
5499;SDS011;2772;42.700;23.304;2022-12-18T13:18:04;23.30;;;12.30;;
5499;SDS011;2772;42.700;23.304;2022-12-18T13:20:40;24.50;;;12.50;;
5499;SDS011;2772;42.700;23.304;2022-12-18T13:23:28;24.57;;;11.30;;
5499;SDS011;2772;42.700;23.304;2022-12-18T13:28:57;22.80;;;12.20;;
5499;SDS011;2772;42.700;23.304;2022-12-18T13:34:31;20.37;;;10.97;;
5499;SDS011;2772;42.700;23.304;2022-12-18T13:39:57;21.37;;;12.27;;
5499;SDS011;2772;42.700;23.304;2022-12-18T13:45:40;17.97;;;10.33;;
5499;SDS011;2772;42.700;23.304;2022-12-18T13:48:14;25.27;;;12.50;;
5499;SDS011;2772;42.700;23.304;2022-12-18T13:50:56;22.77;;;12.60;;
5499;SDS011;2772;42.700;23.304;2022-12-18T13:53:26;20.80;;;11.73;;
5499;SDS011;2772;42.700;23.304;2022-12-18T13:55:58;23.93;;;13.07;;
5499;SDS011;2772;42.700;23.304;2022-12-18T13:58:26;27.70;;;11.47;;
5499;SDS011;2772;42.700;23.304;2022-12-18T14:00:53;32.73;;;11.40;;
5499;SDS011;2772;42.700;23.304;2022-12-18T14:03:21;30.17;;;9.90;;
5499;SDS011;2772;42.700;23.304;2022-12-18T14:05:56;19.27;;;10.87;;
5499;SDS011;2772;42.700;23.304;2022-12-18T14:08:27;19.67;;;11.00;;
5499;SDS011;2772;42.700;23.304;2022-12-18T14:11:00;17.97;;;10.27;;
5499;SDS011;2772;42.700;23.304;2022-12-18T14:13:32;17.63;;;10.40;;
5499;SDS011;2772;42.700;23.304;2022-12-18T14:16:03;16.70;;;9.63;;
5499;SDS011;2772;42.700;23.304;2022-12-18T14:18:35;18.73;;;10.00;;
5499;SDS011;2772;42.700;23.304;2022-12-18T14:21:17;18.03;;;10.20;;
5499;SDS011;2772;42.700;23.304;2022-12-18T14:23:46;19.70;;;10.37;;
5499;SDS011;2772;42.700;23.304;2022-12-18T14:26:20;18.83;;;10.33;;
5499;SDS011;2772;42.700;23.304;2022-12-18T14:28:50;33.33;;;12.50;;
5499;SDS011;2772;42.700;23.304;2022-12-18T14:31:19;18.07;;;10.20;;
5499;SDS011;2772;42.700;23.304;2022-12-18T14:33:50;20.63;;;10.50;;
5499;SDS011;2772;42.700;23.304;2022-12-18T14:36:20;22.90;;;11.07;;
5499;SDS011;2772;42.700;23.304;2022-12-18T14:38:49;16.30;;;10.00;;
5499;SDS011;2772;42.700;23.304;2022-12-18T14:41:18;16.40;;;10.33;;
5499;SDS011;2772;42.700;23.304;2022-12-18T14:43:47;17.40;;;9.90;;
5499;SDS011;2772;42.700;23.304;2022-12-18T14:46:25;18.63;;;10.17;;
5499;SDS011;2772;42.700;23.304;2022-12-18T14:48:55;18.07;;;10.00;;
5499;SDS011;2772;42.700;23.304;2022-12-18T14:51:24;19.90;;;10.47;;
5499;SDS011;2772;42.700;23.304;2022-12-18T14:53:53;15.50;;;10.03;;
5499;SDS011;2772;42.700;23.304;2022-12-18T14:56:22;16.90;;;9.67;;
5499;SDS011;2772;42.700;23.304;2022-12-18T14:58:51;21.40;;;11.10;;
5499;SDS011;2772;42.700;23.304;2022-12-18T15:01:23;19.13;;;11.43;;
5499;SDS011;2772;42.700;23.304;2022-12-18T15:03:56;16.23;;;8.50;;
5499;SDS011;2772;42.700;23.304;2022-12-18T15:06:42;15.63;;;8.60;;
5499;SDS011;2772;42.700;23.304;2022-12-18T15:09:20;21.67;;;9.77;;
5499;SDS011;2772;42.700;23.304;2022-12-18T15:11:49;19.00;;;11.37;;
5499;SDS011;2772;42.700;23.304;2022-12-18T15:14:21;14.43;;;8.50;;
5499;SDS011;2772;42.700;23.304;2022-12-18T15:16:50;15.13;;;8.53;;